KGCK/GCK METAR and TAF weather

Enter ICAO airport designator
Station Type Date Time Source
KGCK METAR 2020/01/20 15:54 UTC NOAA

KGCK 201554Z 26003KT 10SM CLR M03/M05 A3046 RMK AO2 SLP345 T10281050 $


Station Type Date Time Source
KGCK Decoded METAR 2020/01/20 15:54 UTC NOAA

GARDEN CITY REGIONAL AIRPORT, KS, United States (KGCK) 37-55N 100-43W 877M
Jan 20, 2020 - 10:54 AM EST / 2020.01.20 1554 UTC
Wind: from the W (260 degrees) at 3 MPH (3 KT):0
Visibility: 10 mile(s):0
Sky conditions: clear
Temperature: 27.0 F (-2.8 C)
Dew Point: 23.0 F (-5.0 C)
Relative Humidity: 84%
Pressure (altimeter): 30.46 in. Hg (1031 hPa)
ob: KGCK 201554Z 26003KT 10SM CLR M03/M05 A3046 RMK AO2 SLP345 T10281050
cycle: 16

Station Type Date Time Source
KGCK TAF 2020/01/20 12:39 UTC NOAA

TAF KGCK 201136Z 2012/2112 VRB06KT P6SM SKC
FM201700 27005KT P6SM SKC
FM202100 10005KT P6SM SKC
FM210000 08010KT P6SM SKC

Example: see airport list